sensor_id;sensor_type;location;lat;lon;timestamp;P1;durP1;ratioP1;P2;durP2;ratioP2
18407;SDS011;9330;52.210;21.174;2022-12-07T00:00:50;37.97;;;23.73;;
18407;SDS011;9330;52.210;21.174;2022-12-07T00:03:17;32.78;;;24.13;;
18407;SDS011;9330;52.210;21.174;2022-12-07T00:05:44;33.67;;;23.98;;
18407;SDS011;9330;52.210;21.174;2022-12-07T00:08:11;33.38;;;24.08;;
18407;SDS011;9330;52.210;21.174;2022-12-07T00:10:40;32.17;;;23.77;;
18407;SDS011;9330;52.210;21.174;2022-12-07T00:13:06;33.15;;;23.95;;
18407;SDS011;9330;52.210;21.174;2022-12-07T00:15:33;29.35;;;22.38;;
18407;SDS011;9330;52.210;21.174;2022-12-07T00:18:01;33.38;;;23.42;;
18407;SDS011;9330;52.210;21.174;2022-12-07T00:20:28;31.58;;;23.30;;
18407;SDS011;9330;52.210;21.174;2022-12-07T00:22:56;29.75;;;21.05;;
18407;SDS011;9330;52.210;21.174;2022-12-07T00:25:23;30.45;;;22.70;;
18407;SDS011;9330;52.210;21.174;2022-12-07T00:27:51;29.70;;;20.90;;
18407;SDS011;9330;52.210;21.174;2022-12-07T00:30:18;29.50;;;20.98;;
18407;SDS011;9330;52.210;21.174;2022-12-07T00:32:45;30.02;;;22.13;;
18407;SDS011;9330;52.210;21.174;2022-12-07T00:35:12;30.92;;;21.85;;
18407;SDS011;9330;52.210;21.174;2022-12-07T00:37:39;27.98;;;20.85;;
18407;SDS011;9330;52.210;21.174;2022-12-07T00:40:06;28.30;;;20.70;;
18407;SDS011;9330;52.210;21.174;2022-12-07T00:42:34;29.98;;;20.67;;
18407;SDS011;9330;52.210;21.174;2022-12-07T00:45:02;28.33;;;21.05;;
18407;SDS011;9330;52.210;21.174;2022-12-07T00:47:29;29.38;;;21.52;;
18407;SDS011;9330;52.210;21.174;2022-12-07T00:49:56;26.08;;;19.35;;
18407;SDS011;9330;52.210;21.174;2022-12-07T00:52:25;26.50;;;19.73;;
18407;SDS011;9330;52.210;21.174;2022-12-07T00:54:52;27.48;;;20.42;;
18407;SDS011;9330;52.210;21.174;2022-12-07T00:57:19;29.95;;;21.90;;
18407;SDS011;9330;52.210;21.174;2022-12-07T00:59:46;25.35;;;19.52;;
18407;SDS011;9330;52.210;21.174;2022-12-07T01:02:15;31.25;;;22.20;;
18407;SDS011;9330;52.210;21.174;2022-12-07T01:04:42;27.98;;;20.48;;
18407;SDS011;9330;52.210;21.174;2022-12-07T01:07:09;28.00;;;19.88;;
18407;SDS011;9330;52.210;21.174;2022-12-07T01:09:36;25.52;;;19.52;;
18407;SDS011;9330;52.210;21.174;2022-12-07T01:12:03;27.27;;;20.20;;
18407;SDS011;9330;52.210;21.174;2022-12-07T01:14:30;26.67;;;19.67;;
18407;SDS011;9330;52.210;21.174;2022-12-07T01:16:57;27.15;;;20.73;;
18407;SDS011;9330;52.210;21.174;2022-12-07T01:19:25;27.77;;;20.75;;
18407;SDS011;9330;52.210;21.174;2022-12-07T01:21:52;28.63;;;20.70;;
18407;SDS011;9330;52.210;21.174;2022-12-07T01:24:19;30.83;;;22.17;;
18407;SDS011;9330;52.210;21.174;2022-12-07T01:26:48;32.95;;;22.23;;
18407;SDS011;9330;52.210;21.174;2022-12-07T01:29:16;35.05;;;22.88;;
18407;SDS011;9330;52.210;21.174;2022-12-07T01:31:44;36.83;;;24.48;;
18407;SDS011;9330;52.210;21.174;2022-12-07T01:34:11;30.90;;;22.50;;
18407;SDS011;9330;52.210;21.174;2022-12-07T01:36:39;29.77;;;21.10;;
18407;SDS011;9330;52.210;21.174;2022-12-07T01:39:06;32.97;;;21.88;;
18407;SDS011;9330;52.210;21.174;2022-12-07T01:41:36;28.08;;;19.75;;
18407;SDS011;9330;52.210;21.174;2022-12-07T01:46:55;26.35;;;19.45;;
18407;SDS011;9330;52.210;21.174;2022-12-07T01:49:26;28.20;;;20.92;;
18407;SDS011;9330;52.210;21.174;2022-12-07T01:52:02;28.50;;;19.77;;
18407;SDS011;9330;52.210;21.174;2022-12-07T01:54:35;28.33;;;20.77;;
18407;SDS011;9330;52.210;21.174;2022-12-07T01:57:02;28.42;;;20.85;;
18407;SDS011;9330;52.210;21.174;2022-12-07T01:59:30;28.45;;;20.92;;
18407;SDS011;9330;52.210;21.174;2022-12-07T02:01:58;29.77;;;22.00;;
18407;SDS011;9330;52.210;21.174;2022-12-07T02:04:27;29.30;;;20.85;;
18407;SDS011;9330;52.210;21.174;2022-12-07T02:06:55;25.60;;;19.80;;
18407;SDS011;9330;52.210;21.174;2022-12-07T02:09:25;29.77;;;21.48;;
18407;SDS011;9330;52.210;21.174;2022-12-07T02:11:52;28.38;;;21.45;;
18407;SDS011;9330;52.210;21.174;2022-12-07T02:14:21;29.75;;;22.25;;
18407;SDS011;9330;52.210;21.174;2022-12-07T02:16:51;29.30;;;21.33;;
18407;SDS011;9330;52.210;21.174;2022-12-07T02:19:38;30.20;;;21.38;;
18407;SDS011;9330;52.210;21.174;2022-12-07T02:22:34;28.52;;;20.65;;
18407;SDS011;9330;52.210;21.174;2022-12-07T02:25:21;31.48;;;20.42;;
18407;SDS011;9330;52.210;21.174;2022-12-07T02:27:59;27.17;;;18.65;;
18407;SDS011;9330;52.210;21.174;2022-12-07T02:30:31;27.80;;;18.70;;
18407;SDS011;9330;52.210;21.174;2022-12-07T02:33:03;24.10;;;16.77;;
18407;SDS011;9330;52.210;21.174;2022-12-07T02:35:35;23.45;;;17.48;;
18407;SDS011;9330;52.210;21.174;2022-12-07T02:38:08;22.17;;;16.45;;
18407;SDS011;9330;52.210;21.174;2022-12-07T02:40:41;21.02;;;14.57;;
18407;SDS011;9330;52.210;21.174;2022-12-07T02:43:14;17.10;;;13.57;;
18407;SDS011;9330;52.210;21.174;2022-12-07T02:45:47;18.10;;;13.88;;
18407;SDS011;9330;52.210;21.174;2022-12-07T02:48:17;17.67;;;12.80;;
18407;SDS011;9330;52.210;21.174;2022-12-07T02:50:48;14.95;;;11.80;;
18407;SDS011;9330;52.210;21.174;2022-12-07T02:53:28;14.75;;;11.45;;
18407;SDS011;9330;52.210;21.174;2022-12-07T02:55:55;16.63;;;12.20;;
18407;SDS011;9330;52.210;21.174;2022-12-07T02:58:26;17.90;;;14.55;;
18407;SDS011;9330;52.210;21.174;2022-12-07T03:01:07;17.10;;;11.02;;
18407;SDS011;9330;52.210;21.174;2022-12-07T03:03:41;14.60;;;11.15;;
18407;SDS011;9330;52.210;21.174;2022-12-07T03:06:16;13.00;;;9.82;;
18407;SDS011;9330;52.210;21.174;2022-12-07T03:08:51;14.05;;;10.23;;
18407;SDS011;9330;52.210;21.174;2022-12-07T03:11:24;11.32;;;8.93;;
18407;SDS011;9330;52.210;21.174;2022-12-07T03:13:58;12.15;;;9.23;;
18407;SDS011;9330;52.210;21.174;2022-12-07T03:16:31;11.02;;;9.07;;
18407;SDS011;9330;52.210;21.174;2022-12-07T03:19:06;12.35;;;10.10;;
18407;SDS011;9330;52.210;21.174;2022-12-07T03:21:37;12.90;;;9.25;;
18407;SDS011;9330;52.210;21.174;2022-12-07T03:24:08;12.48;;;9.45;;
18407;SDS011;9330;52.210;21.174;2022-12-07T03:26:39;13.07;;;8.95;;
18407;SDS011;9330;52.210;21.174;2022-12-07T03:29:11;11.13;;;9.07;;
18407;SDS011;9330;52.210;21.174;2022-12-07T03:31:46;13.00;;;10.02;;
18407;SDS011;9330;52.210;21.174;2022-12-07T03:34:16;11.15;;;8.80;;
18407;SDS011;9330;52.210;21.174;2022-12-07T03:36:49;13.50;;;9.80;;
18407;SDS011;9330;52.210;21.174;2022-12-07T03:39:21;12.77;;;10.05;;
18407;SDS011;9330;52.210;21.174;2022-12-07T03:41:52;12.27;;;9.73;;
18407;SDS011;9330;52.210;21.174;2022-12-07T03:44:22;13.65;;;10.25;;
18407;SDS011;9330;52.210;21.174;2022-12-07T03:46:52;11.48;;;9.63;;
18407;SDS011;9330;52.210;21.174;2022-12-07T03:49:29;11.45;;;8.20;;
18407;SDS011;9330;52.210;21.174;2022-12-07T03:52:02;12.50;;;9.15;;
18407;SDS011;9330;52.210;21.174;2022-12-07T03:54:38;13.20;;;10.65;;
18407;SDS011;9330;52.210;21.174;2022-12-07T03:57:08;11.38;;;9.10;;
18407;SDS011;9330;52.210;21.174;2022-12-07T03:59:37;8.85;;;7.63;;
18407;SDS011;9330;52.210;21.174;2022-12-07T04:02:07;8.10;;;6.65;;
18407;SDS011;9330;52.210;21.174;2022-12-07T04:04:37;8.38;;;6.60;;
18407;SDS011;9330;52.210;21.174;2022-12-07T04:07:05;7.35;;;5.57;;
18407;SDS011;9330;52.210;21.174;2022-12-07T04:09:32;7.15;;;5.88;;
18407;SDS011;9330;52.210;21.174;2022-12-07T04:11:59;7.82;;;6.13;;
18407;SDS011;9330;52.210;21.174;2022-12-07T04:14:25;6.32;;;5.40;;
18407;SDS011;9330;52.210;21.174;2022-12-07T04:16:53;8.85;;;6.28;;
18407;SDS011;9330;52.210;21.174;2022-12-07T04:19:24;7.60;;;5.63;;
18407;SDS011;9330;52.210;21.174;2022-12-07T04:21:52;6.70;;;5.50;;
18407;SDS011;9330;52.210;21.174;2022-12-07T04:24:19;7.25;;;5.65;;
18407;SDS011;9330;52.210;21.174;2022-12-07T04:26:47;7.95;;;5.85;;
18407;SDS011;9330;52.210;21.174;2022-12-07T04:29:14;7.65;;;6.03;;
18407;SDS011;9330;52.210;21.174;2022-12-07T04:31:42;7.57;;;5.75;;
18407;SDS011;9330;52.210;21.174;2022-12-07T04:34:10;6.72;;;5.05;;
18407;SDS011;9330;52.210;21.174;2022-12-07T04:36:39;6.90;;;5.30;;
18407;SDS011;9330;52.210;21.174;2022-12-07T04:39:11;8.82;;;5.85;;
18407;SDS011;9330;52.210;21.174;2022-12-07T04:41:43;8.32;;;5.40;;
18407;SDS011;9330;52.210;21.174;2022-12-07T04:44:10;7.95;;;5.63;;
18407;SDS011;9330;52.210;21.174;2022-12-07T04:46:40;8.07;;;5.93;;
18407;SDS011;9330;52.210;21.174;2022-12-07T04:49:07;7.72;;;5.68;;
18407;SDS011;9330;52.210;21.174;2022-12-07T04:51:35;7.60;;;5.80;;
18407;SDS011;9330;52.210;21.174;2022-12-07T04:54:03;7.15;;;5.72;;
18407;SDS011;9330;52.210;21.174;2022-12-07T04:56:30;6.03;;;5.40;;
18407;SDS011;9330;52.210;21.174;2022-12-07T04:58:57;7.53;;;5.85;;
18407;SDS011;9330;52.210;21.174;2022-12-07T05:01:24;8.20;;;5.82;;
18407;SDS011;9330;52.210;21.174;2022-12-07T05:03:51;8.23;;;5.18;;
18407;SDS011;9330;52.210;21.174;2022-12-07T05:06:18;8.73;;;5.55;;
18407;SDS011;9330;52.210;21.174;2022-12-07T05:08:46;6.45;;;5.28;;
18407;SDS011;9330;52.210;21.174;2022-12-07T05:11:15;6.72;;;5.43;;
18407;SDS011;9330;52.210;21.174;2022-12-07T05:13:55;8.90;;;5.47;;
18407;SDS011;9330;52.210;21.174;2022-12-07T05:16:23;7.15;;;5.53;;
18407;SDS011;9330;52.210;21.174;2022-12-07T05:18:50;7.07;;;5.63;;
18407;SDS011;9330;52.210;21.174;2022-12-07T05:21:17;6.93;;;5.38;;
18407;SDS011;9330;52.210;21.174;2022-12-07T05:23:44;8.65;;;6.20;;
18407;SDS011;9330;52.210;21.174;2022-12-07T05:26:11;8.15;;;5.60;;
18407;SDS011;9330;52.210;21.174;2022-12-07T05:28:39;7.03;;;5.10;;
18407;SDS011;9330;52.210;21.174;2022-12-07T05:31:06;7.15;;;5.47;;
18407;SDS011;9330;52.210;21.174;2022-12-07T05:33:33;9.52;;;6.03;;
18407;SDS011;9330;52.210;21.174;2022-12-07T05:36:00;7.38;;;5.80;;
18407;SDS011;9330;52.210;21.174;2022-12-07T05:38:30;6.60;;;5.88;;
18407;SDS011;9330;52.210;21.174;2022-12-07T05:40:59;7.63;;;6.18;;
18407;SDS011;9330;52.210;21.174;2022-12-07T05:43:27;7.25;;;6.32;;
18407;SDS011;9330;52.210;21.174;2022-12-07T05:45:55;6.25;;;5.10;;
18407;SDS011;9330;52.210;21.174;2022-12-07T05:48:23;6.47;;;5.35;;
18407;SDS011;9330;52.210;21.174;2022-12-07T05:50:50;7.65;;;6.05;;
18407;SDS011;9330;52.210;21.174;2022-12-07T05:53:18;7.68;;;6.10;;
18407;SDS011;9330;52.210;21.174;2022-12-07T05:55:45;8.23;;;6.78;;
18407;SDS011;9330;52.210;21.174;2022-12-07T05:58:12;8.55;;;6.90;;
18407;SDS011;9330;52.210;21.174;2022-12-07T06:00:57;7.38;;;6.53;;
18407;SDS011;9330;52.210;21.174;2022-12-07T06:03:24;9.02;;;7.20;;
18407;SDS011;9330;52.210;21.174;2022-12-07T06:05:51;8.90;;;7.85;;
18407;SDS011;9330;52.210;21.174;2022-12-07T06:08:19;9.80;;;7.60;;
18407;SDS011;9330;52.210;21.174;2022-12-07T06:10:46;11.43;;;7.60;;
18407;SDS011;9330;52.210;21.174;2022-12-07T06:13:36;9.20;;;8.18;;
18407;SDS011;9330;52.210;21.174;2022-12-07T06:16:03;9.45;;;7.60;;
18407;SDS011;9330;52.210;21.174;2022-12-07T06:18:30;11.05;;;8.30;;
18407;SDS011;9330;52.210;21.174;2022-12-07T06:20:57;9.48;;;7.90;;
18407;SDS011;9330;52.210;21.174;2022-12-07T06:23:24;9.63;;;8.20;;
18407;SDS011;9330;52.210;21.174;2022-12-07T06:25:51;12.32;;;8.63;;
18407;SDS011;9330;52.210;21.174;2022-12-07T06:28:18;12.23;;;7.88;;
18407;SDS011;9330;52.210;21.174;2022-12-07T06:30:45;11.60;;;8.77;;
18407;SDS011;9330;52.210;21.174;2022-12-07T06:33:13;10.30;;;8.70;;
18407;SDS011;9330;52.210;21.174;2022-12-07T06:35:40;10.27;;;7.65;;
18407;SDS011;9330;52.210;21.174;2022-12-07T06:38:07;11.50;;;8.98;;
18407;SDS011;9330;52.210;21.174;2022-12-07T06:40:34;10.93;;;8.85;;
18407;SDS011;9330;52.210;21.174;2022-12-07T06:43:01;10.43;;;8.07;;
18407;SDS011;9330;52.210;21.174;2022-12-07T06:45:28;10.52;;;8.55;;
18407;SDS011;9330;52.210;21.174;2022-12-07T06:47:55;10.40;;;8.70;;
18407;SDS011;9330;52.210;21.174;2022-12-07T06:50:23;11.27;;;8.55;;
18407;SDS011;9330;52.210;21.174;2022-12-07T06:52:51;10.30;;;8.70;;
18407;SDS011;9330;52.210;21.174;2022-12-07T06:55:18;11.65;;;8.88;;
18407;SDS011;9330;52.210;21.174;2022-12-07T06:57:45;10.75;;;8.82;;
18407;SDS011;9330;52.210;21.174;2022-12-07T07:00:12;11.48;;;9.48;;
18407;SDS011;9330;52.210;21.174;2022-12-07T07:02:40;13.68;;;9.77;;
18407;SDS011;9330;52.210;21.174;2022-12-07T07:05:07;13.30;;;10.00;;
18407;SDS011;9330;52.210;21.174;2022-12-07T07:07:35;12.40;;;9.48;;
18407;SDS011;9330;52.210;21.174;2022-12-07T07:10:03;14.27;;;9.88;;
18407;SDS011;9330;52.210;21.174;2022-12-07T07:12:30;10.52;;;8.30;;
18407;SDS011;9330;52.210;21.174;2022-12-07T07:14:57;13.32;;;9.63;;
18407;SDS011;9330;52.210;21.174;2022-12-07T07:17:24;10.85;;;9.00;;
18407;SDS011;9330;52.210;21.174;2022-12-07T07:19:51;11.43;;;8.85;;
18407;SDS011;9330;52.210;21.174;2022-12-07T07:22:18;10.43;;;9.05;;
18407;SDS011;9330;52.210;21.174;2022-12-07T07:24:46;10.63;;;8.15;;
18407;SDS011;9330;52.210;21.174;2022-12-07T07:27:13;11.52;;;9.30;;
18407;SDS011;9330;52.210;21.174;2022-12-07T07:29:40;12.48;;;9.55;;
18407;SDS011;9330;52.210;21.174;2022-12-07T07:32:07;10.43;;;8.15;;
18407;SDS011;9330;52.210;21.174;2022-12-07T07:34:34;12.27;;;9.38;;
18407;SDS011;9330;52.210;21.174;2022-12-07T07:37:01;13.88;;;9.98;;
18407;SDS011;9330;52.210;21.174;2022-12-07T07:39:28;11.98;;;9.43;;
18407;SDS011;9330;52.210;21.174;2022-12-07T07:41:56;10.98;;;8.57;;
18407;SDS011;9330;52.210;21.174;2022-12-07T07:44:23;12.20;;;8.82;;
18407;SDS011;9330;52.210;21.174;2022-12-07T07:46:50;13.15;;;9.10;;
18407;SDS011;9330;52.210;21.174;2022-12-07T07:49:17;12.73;;;9.38;;
18407;SDS011;9330;52.210;21.174;2022-12-07T07:51:44;12.43;;;8.80;;
18407;SDS011;9330;52.210;21.174;2022-12-07T07:54:11;12.30;;;9.05;;
18407;SDS011;9330;52.210;21.174;2022-12-07T07:56:38;12.13;;;8.90;;
18407;SDS011;9330;52.210;21.174;2022-12-07T07:59:06;12.35;;;8.57;;
18407;SDS011;9330;52.210;21.174;2022-12-07T08:01:33;13.15;;;8.95;;
18407;SDS011;9330;52.210;21.174;2022-12-07T08:04:00;10.50;;;8.55;;
18407;SDS011;9330;52.210;21.174;2022-12-07T08:06:27;12.07;;;8.50;;
18407;SDS011;9330;52.210;21.174;2022-12-07T08:08:54;10.43;;;8.10;;
18407;SDS011;9330;52.210;21.174;2022-12-07T08:11:22;9.82;;;7.88;;
18407;SDS011;9330;52.210;21.174;2022-12-07T08:13:50;11.52;;;8.65;;
18407;SDS011;9330;52.210;21.174;2022-12-07T08:16:18;11.50;;;8.95;;
18407;SDS011;9330;52.210;21.174;2022-12-07T08:18:45;10.48;;;8.35;;
18407;SDS011;9330;52.210;21.174;2022-12-07T08:21:14;9.60;;;7.72;;
18407;SDS011;9330;52.210;21.174;2022-12-07T08:23:42;10.02;;;7.97;;
18407;SDS011;9330;52.210;21.174;2022-12-07T08:26:14;11.23;;;7.97;;
18407;SDS011;9330;52.210;21.174;2022-12-07T08:28:42;10.43;;;8.18;;
18407;SDS011;9330;52.210;21.174;2022-12-07T08:31:10;11.15;;;8.52;;
18407;SDS011;9330;52.210;21.174;2022-12-07T08:33:40;9.80;;;8.68;;
18407;SDS011;9330;52.210;21.174;2022-12-07T08:36:10;11.57;;;8.43;;
18407;SDS011;9330;52.210;21.174;2022-12-07T08:38:39;11.52;;;9.32;;
18407;SDS011;9330;52.210;21.174;2022-12-07T08:41:07;14.27;;;9.45;;
18407;SDS011;9330;52.210;21.174;2022-12-07T08:43:35;13.18;;;9.82;;
18407;SDS011;9330;52.210;21.174;2022-12-07T08:46:05;15.25;;;11.13;;
18407;SDS011;9330;52.210;21.174;2022-12-07T08:48:36;13.68;;;9.45;;
18407;SDS011;9330;52.210;21.174;2022-12-07T08:51:08;14.43;;;10.25;;
18407;SDS011;9330;52.210;21.174;2022-12-07T08:53:35;13.23;;;9.88;;
18407;SDS011;9330;52.210;21.174;2022-12-07T08:56:04;15.73;;;10.95;;
18407;SDS011;9330;52.210;21.174;2022-12-07T08:58:34;14.18;;;10.43;;
18407;SDS011;9330;52.210;21.174;2022-12-07T09:01:03;16.45;;;12.20;;
18407;SDS011;9330;52.210;21.174;2022-12-07T09:03:30;15.18;;;10.82;;
18407;SDS011;9330;52.210;21.174;2022-12-07T09:05:57;17.23;;;12.70;;
18407;SDS011;9330;52.210;21.174;2022-12-07T09:08:26;20.17;;;12.93;;
18407;SDS011;9330;52.210;21.174;2022-12-07T09:10:56;18.15;;;12.18;;
18407;SDS011;9330;52.210;21.174;2022-12-07T09:13:23;20.73;;;14.75;;
18407;SDS011;9330;52.210;21.174;2022-12-07T09:15:50;21.38;;;14.75;;
18407;SDS011;9330;52.210;21.174;2022-12-07T09:18:17;19.35;;;13.27;;
18407;SDS011;9330;52.210;21.174;2022-12-07T09:20:43;19.50;;;13.90;;
18407;SDS011;9330;52.210;21.174;2022-12-07T09:23:10;19.02;;;13.93;;
18407;SDS011;9330;52.210;21.174;2022-12-07T09:25:39;19.70;;;13.60;;
18407;SDS011;9330;52.210;21.174;2022-12-07T09:28:06;18.52;;;14.15;;
18407;SDS011;9330;52.210;21.174;2022-12-07T09:30:33;20.27;;;14.15;;
18407;SDS011;9330;52.210;21.174;2022-12-07T09:33:01;22.00;;;15.30;;
18407;SDS011;9330;52.210;21.174;2022-12-07T09:35:28;19.95;;;14.68;;
18407;SDS011;9330;52.210;21.174;2022-12-07T09:37:55;19.77;;;14.65;;
18407;SDS011;9330;52.210;21.174;2022-12-07T09:40:22;20.80;;;13.90;;
18407;SDS011;9330;52.210;21.174;2022-12-07T09:42:51;17.25;;;13.43;;
18407;SDS011;9330;52.210;21.174;2022-12-07T09:45:21;18.38;;;13.82;;
18407;SDS011;9330;52.210;21.174;2022-12-07T09:47:50;22.13;;;14.00;;
18407;SDS011;9330;52.210;21.174;2022-12-07T09:50:19;17.85;;;13.25;;
18407;SDS011;9330;52.210;21.174;2022-12-07T09:52:48;18.75;;;13.57;;
18407;SDS011;9330;52.210;21.174;2022-12-07T09:55:17;20.60;;;13.63;;
18407;SDS011;9330;52.210;21.174;2022-12-07T09:57:49;21.60;;;14.95;;
18407;SDS011;9330;52.210;21.174;2022-12-07T10:00:19;19.98;;;13.88;;
18407;SDS011;9330;52.210;21.174;2022-12-07T10:02:48;21.77;;;14.32;;
18407;SDS011;9330;52.210;21.174;2022-12-07T10:05:22;24.55;;;14.75;;
18407;SDS011;9330;52.210;21.174;2022-12-07T10:07:52;22.30;;;15.05;;
18407;SDS011;9330;52.210;21.174;2022-12-07T10:10:22;21.17;;;14.63;;
18407;SDS011;9330;52.210;21.174;2022-12-07T10:12:53;19.65;;;13.52;;
18407;SDS011;9330;52.210;21.174;2022-12-07T10:15:23;21.88;;;13.27;;
18407;SDS011;9330;52.210;21.174;2022-12-07T10:18:14;19.25;;;13.15;;
18407;SDS011;9330;52.210;21.174;2022-12-07T10:20:45;20.88;;;13.65;;
18407;SDS011;9330;52.210;21.174;2022-12-07T10:23:13;22.48;;;13.55;;
18407;SDS011;9330;52.210;21.174;2022-12-07T10:25:41;19.42;;;14.05;;
18407;SDS011;9330;52.210;21.174;2022-12-07T10:28:16;19.63;;;12.98;;
18407;SDS011;9330;52.210;21.174;2022-12-07T10:30:48;18.88;;;12.90;;
18407;SDS011;9330;52.210;21.174;2022-12-07T10:36:00;20.00;;;14.05;;
18407;SDS011;9330;52.210;21.174;2022-12-07T10:38:43;19.63;;;13.45;;
18407;SDS011;9330;52.210;21.174;2022-12-07T10:41:11;16.15;;;12.38;;
18407;SDS011;9330;52.210;21.174;2022-12-07T10:43:44;19.48;;;12.90;;
18407;SDS011;9330;52.210;21.174;2022-12-07T10:52:31;20.95;;;13.90;;
18407;SDS011;9330;52.210;21.174;2022-12-07T10:55:13;17.23;;;12.18;;
18407;SDS011;9330;52.210;21.174;2022-12-07T10:57:50;17.85;;;12.05;;
18407;SDS011;9330;52.210;21.174;2022-12-07T11:00:46;18.77;;;12.43;;
18407;SDS011;9330;52.210;21.174;2022-12-07T11:03:29;17.27;;;12.35;;
18407;SDS011;9330;52.210;21.174;2022-12-07T11:06:06;16.33;;;11.73;;
18407;SDS011;9330;52.210;21.174;2022-12-07T11:08:48;16.15;;;11.82;;
18407;SDS011;9330;52.210;21.174;2022-12-07T11:11:27;17.80;;;12.82;;
18407;SDS011;9330;52.210;21.174;2022-12-07T11:14:02;16.23;;;12.18;;
18407;SDS011;9330;52.210;21.174;2022-12-07T11:16:43;15.98;;;12.13;;
18407;SDS011;9330;52.210;21.174;2022-12-07T11:22:20;16.15;;;11.93;;
18407;SDS011;9330;52.210;21.174;2022-12-07T11:24:57;14.73;;;11.50;;
18407;SDS011;9330;52.210;21.174;2022-12-07T11:27:32;13.48;;;10.82;;
18407;SDS011;9330;52.210;21.174;2022-12-07T11:30:13;14.20;;;10.70;;
18407;SDS011;9330;52.210;21.174;2022-12-07T11:32:51;15.25;;;11.50;;
18407;SDS011;9330;52.210;21.174;2022-12-07T11:35:27;15.65;;;12.05;;
18407;SDS011;9330;52.210;21.174;2022-12-07T11:38:07;16.30;;;11.73;;
18407;SDS011;9330;52.210;21.174;2022-12-07T11:40:37;16.95;;;11.82;;
18407;SDS011;9330;52.210;21.174;2022-12-07T11:43:09;14.15;;;11.52;;
18407;SDS011;9330;52.210;21.174;2022-12-07T11:45:42;18.08;;;13.02;;
18407;SDS011;9330;52.210;21.174;2022-12-07T11:48:14;14.98;;;11.32;;
18407;SDS011;9330;52.210;21.174;2022-12-07T11:50:47;16.75;;;12.80;;
18407;SDS011;9330;52.210;21.174;2022-12-07T11:53:19;17.95;;;12.80;;
18407;SDS011;9330;52.210;21.174;2022-12-07T11:55:50;16.58;;;12.30;;
18407;SDS011;9330;52.210;21.174;2022-12-07T11:58:33;16.25;;;12.85;;
18407;SDS011;9330;52.210;21.174;2022-12-07T12:01:08;16.60;;;12.18;;
18407;SDS011;9330;52.210;21.174;2022-12-07T12:03:46;15.98;;;12.02;;
18407;SDS011;9330;52.210;21.174;2022-12-07T12:06:14;14.73;;;11.50;;
18407;SDS011;9330;52.210;21.174;2022-12-07T12:08:42;17.85;;;12.70;;
18407;SDS011;9330;52.210;21.174;2022-12-07T12:11:18;19.17;;;13.52;;
18407;SDS011;9330;52.210;21.174;2022-12-07T12:14:03;17.38;;;12.32;;
18407;SDS011;9330;52.210;21.174;2022-12-07T12:16:51;15.90;;;11.95;;
18407;SDS011;9330;52.210;21.174;2022-12-07T12:19:41;15.95;;;12.32;;
18407;SDS011;9330;52.210;21.174;2022-12-07T12:22:20;15.75;;;12.43;;
18407;SDS011;9330;52.210;21.174;2022-12-07T12:24:52;16.88;;;12.18;;
18407;SDS011;9330;52.210;21.174;2022-12-07T12:27:21;16.38;;;11.73;;
18407;SDS011;9330;52.210;21.174;2022-12-07T12:29:52;15.15;;;11.50;;
18407;SDS011;9330;52.210;21.174;2022-12-07T12:32:21;17.15;;;11.85;;
18407;SDS011;9330;52.210;21.174;2022-12-07T12:37:55;14.02;;;10.95;;
18407;SDS011;9330;52.210;21.174;2022-12-07T12:40:53;14.20;;;11.13;;
18407;SDS011;9330;52.210;21.174;2022-12-07T12:43:40;14.88;;;11.80;;
18407;SDS011;9330;52.210;21.174;2022-12-07T12:52:52;15.77;;;12.52;;
18407;SDS011;9330;52.210;21.174;2022-12-07T12:58:44;19.27;;;11.45;;
18407;SDS011;9330;52.210;21.174;2022-12-07T13:04:30;14.30;;;11.15;;
18407;SDS011;9330;52.210;21.174;2022-12-07T13:07:10;13.10;;;10.55;;
18407;SDS011;9330;52.210;21.174;2022-12-07T13:09:42;14.88;;;11.40;;
18407;SDS011;9330;52.210;21.174;2022-12-07T13:12:12;13.85;;;10.90;;
18407;SDS011;9330;52.210;21.174;2022-12-07T13:14:41;14.40;;;11.10;;
18407;SDS011;9330;52.210;21.174;2022-12-07T13:23:20;12.77;;;10.40;;
18407;SDS011;9330;52.210;21.174;2022-12-07T13:25:53;14.35;;;11.00;;
18407;SDS011;9330;52.210;21.174;2022-12-07T13:28:25;12.40;;;10.15;;
18407;SDS011;9330;52.210;21.174;2022-12-07T13:31:00;10.90;;;9.75;;
18407;SDS011;9330;52.210;21.174;2022-12-07T13:33:36;10.95;;;9.73;;
18407;SDS011;9330;52.210;21.174;2022-12-07T13:36:02;12.93;;;10.20;;
18407;SDS011;9330;52.210;21.174;2022-12-07T13:38:30;11.27;;;9.52;;
18407;SDS011;9330;52.210;21.174;2022-12-07T13:41:05;12.75;;;9.52;;
18407;SDS011;9330;52.210;21.174;2022-12-07T13:43:46;12.98;;;10.30;;
18407;SDS011;9330;52.210;21.174;2022-12-07T13:46:17;12.85;;;10.13;;
18407;SDS011;9330;52.210;21.174;2022-12-07T13:48:50;11.40;;;10.00;;
18407;SDS011;9330;52.210;21.174;2022-12-07T13:51:18;12.73;;;10.57;;
18407;SDS011;9330;52.210;21.174;2022-12-07T13:53:48;12.02;;;10.00;;
18407;SDS011;9330;52.210;21.174;2022-12-07T13:56:20;13.45;;;10.98;;
18407;SDS011;9330;52.210;21.174;2022-12-07T13:58:48;13.60;;;10.90;;
18407;SDS011;9330;52.210;21.174;2022-12-07T14:01:15;11.27;;;10.07;;
18407;SDS011;9330;52.210;21.174;2022-12-07T14:03:43;12.25;;;10.43;;
18407;SDS011;9330;52.210;21.174;2022-12-07T14:06:18;13.32;;;10.88;;
18407;SDS011;9330;52.210;21.174;2022-12-07T14:08:50;12.30;;;10.20;;
18407;SDS011;9330;52.210;21.174;2022-12-07T14:11:33;13.13;;;10.65;;
18407;SDS011;9330;52.210;21.174;2022-12-07T14:14:00;12.80;;;10.60;;
18407;SDS011;9330;52.210;21.174;2022-12-07T14:16:29;12.43;;;10.05;;
18407;SDS011;9330;52.210;21.174;2022-12-07T14:18:58;12.48;;;9.70;;
18407;SDS011;9330;52.210;21.174;2022-12-07T14:21:26;10.82;;;9.73;;
18407;SDS011;9330;52.210;21.174;2022-12-07T14:24:04;13.45;;;10.50;;
18407;SDS011;9330;52.210;21.174;2022-12-07T14:26:44;10.55;;;8.98;;
18407;SDS011;9330;52.210;21.174;2022-12-07T14:29:18;11.60;;;9.85;;
18407;SDS011;9330;52.210;21.174;2022-12-07T14:31:47;12.23;;;9.80;;
18407;SDS011;9330;52.210;21.174;2022-12-07T14:34:14;13.25;;;10.50;;
18407;SDS011;9330;52.210;21.174;2022-12-07T14:36:41;13.10;;;10.32;;
18407;SDS011;9330;52.210;21.174;2022-12-07T14:39:08;11.40;;;9.88;;
18407;SDS011;9330;52.210;21.174;2022-12-07T14:41:35;17.73;;;10.88;;
18407;SDS011;9330;52.210;21.174;2022-12-07T14:44:19;13.15;;;10.80;;
18407;SDS011;9330;52.210;21.174;2022-12-07T14:46:47;14.07;;;10.88;;
18407;SDS011;9330;52.210;21.174;2022-12-07T14:49:15;13.75;;;11.85;;
18407;SDS011;9330;52.210;21.174;2022-12-07T14:51:43;13.95;;;11.43;;
18407;SDS011;9330;52.210;21.174;2022-12-07T14:54:14;14.93;;;12.55;;
18407;SDS011;9330;52.210;21.174;2022-12-07T14:56:44;16.52;;;12.10;;
18407;SDS011;9330;52.210;21.174;2022-12-07T14:59:14;14.15;;;11.93;;
18407;SDS011;9330;52.210;21.174;2022-12-07T15:01:43;14.52;;;11.90;;
18407;SDS011;9330;52.210;21.174;2022-12-07T15:04:10;13.65;;;11.48;;
18407;SDS011;9330;52.210;21.174;2022-12-07T15:06:37;14.43;;;11.82;;
18407;SDS011;9330;52.210;21.174;2022-12-07T15:09:04;14.50;;;11.73;;
18407;SDS011;9330;52.210;21.174;2022-12-07T15:11:31;14.02;;;11.68;;
18407;SDS011;9330;52.210;21.174;2022-12-07T15:13:58;14.55;;;12.02;;
18407;SDS011;9330;52.210;21.174;2022-12-07T15:16:34;13.75;;;11.68;;
18407;SDS011;9330;52.210;21.174;2022-12-07T15:19:03;16.35;;;12.57;;
18407;SDS011;9330;52.210;21.174;2022-12-07T15:21:30;16.85;;;13.10;;
18407;SDS011;9330;52.210;21.174;2022-12-07T15:23:57;17.70;;;14.52;;